Terminal Aerodrome Forecast
Issued by NWS Knoxville/Tri Cities, TN

Home | Current Version | Previous Version | Text Only | Print | Product List | Glossary On
Versions: 1 2 3 4 5 6 7 8 9 10 11 12 13 14 15 16 17 18 19 20 21 22 23 24 25 26 27 28 29 30 31 32 33 34 35 36 37 38 39 40 41 42 43 44 45 46
000
FTUS44 KMRX 202320
TAFTRI
TAF
KTRI 202320Z 2100/2124 VRB04KT P6SM FEW050 SCT250
     FM210300 00000KT P6SM BKN100
     FM210900 00000KT 2SM BR SCT002
      TEMPO 2109/2112 1/2SM FG BKN002
     FM211400 00000KT P6SM SCT250=

USA.gov is the U.S. government's official web portal to all federal, state and local government web resources and services.